Time;durP1;ratioP1;P1;durP2;ratioP2;P2;SDS_P1;SDS_P2;PMS_P1;PMS_P2;Temp;Humidity;BMP_temperature;BMP_pressure;BME280_temperature;BME280_humidity;BME280_pressure;Samples;Min_cycle;Max_cycle;Signal;HPM_P1;HPM_P2
2023/12/03 00:02:27;;;;;;;23.63;8.53;;;;;1.70;96329.00;;;;5026296;28;20451;-66
2023/12/03 00:05:16;;;;;;;13.60;8.70;;;;;1.40;96323.00;;;;5018429;28;20445;-66
2023/12/03 00:08:07;;;;;;;32.37;24.87;;;;;1.30;96316.00;;;;5013326;28;20439;-68
2023/12/03 00:10:56;;;;;;;113.27;54.23;;;;;1.20;96333.00;;;;5022458;28;20501;-67
2023/12/03 00:13:46;;;;;;;8.80;2.93;;;;;1.70;96334.00;;;;5022810;28;20428;-66
2023/12/03 00:16:35;;;;;;;9.23;3.10;;;;;1.80;96344.00;;;;5023024;28;20484;-66
2023/12/03 00:19:24;;;;;;;20.00;6.03;;;;;1.90;96359.00;;;;5019197;28;20443;-66
2023/12/03 00:22:14;;;;;;;11.67;3.77;;;;;1.90;96365.00;;;;5021946;28;20476;-67
2023/12/03 00:25:06;;;;;;;11.20;3.67;;;;;1.80;96361.00;;;;5025707;28;20428;-66
2023/12/03 00:27:55;;;;;;;10.63;3.73;;;;;1.90;96384.00;;;;5027290;28;20424;-67
2023/12/03 00:30:44;;;;;;;12.60;4.00;;;;;1.80;96387.00;;;;5023075;28;20441;-66
2023/12/03 00:33:34;;;;;;;17.93;5.57;;;;;1.90;96395.00;;;;5021599;28;20440;-67
2023/12/03 00:36:23;;;;;;;21.17;6.40;;;;;2.00;96398.00;;;;5017690;28;20456;-67
2023/12/03 00:39:12;;;;;;;12.30;4.00;;;;;1.90;96406.00;;;;5025941;28;20436;-66
2023/12/03 00:42:03;;;;;;;16.67;5.13;;;;;2.00;96413.00;;;;5021292;28;20441;-66
2023/12/03 00:44:52;;;;;;;10.77;3.70;;;;;2.00;96425.00;;;;5026492;28;20432;-67
2023/12/03 00:47:41;;;;;;;9.63;3.23;;;;;1.80;96431.00;;;;5016755;28;20425;-66
2023/12/03 00:50:30;;;;;;;24.43;7.60;;;;;1.80;96439.00;;;;5023479;28;20466;-67
2023/12/03 00:53:19;;;;;;;19.63;5.97;;;;;1.90;96449.00;;;;5014508;28;20436;-67
2023/12/03 00:56:09;;;;;;;10.53;3.43;;;;;1.90;96454.00;;;;5010233;28;20461;-66
2023/12/03 00:59:00;;;;;;;16.03;5.23;;;;;2.00;96456.00;;;;5028012;28;20978;-66
2023/12/03 01:01:49;;;;;;;5.90;2.57;;;;;2.00;96459.00;;;;5024707;28;20445;-68
2023/12/03 01:04:38;;;;;;;4.90;2.20;;;;;2.00;96466.00;;;;5018404;28;20421;-67
2023/12/03 01:07:27;;;;;;;18.70;5.87;;;;;2.00;96490.00;;;;5022332;28;20431;-67
2023/12/03 01:10:16;;;;;;;11.13;3.63;;;;;2.00;96480.00;;;;5024899;28;20484;-68
2023/12/03 01:13:05;;;;;;;13.00;4.33;;;;;2.00;96497.00;;;;5015186;28;20434;-68
2023/12/03 01:15:56;;;;;;;11.27;3.90;;;;;1.90;96494.00;;;;5022420;28;20432;-67
2023/12/03 01:18:45;;;;;;;12.30;4.20;;;;;1.90;96513.00;;;;5018302;28;20433;-66
2023/12/03 01:21:34;;;;;;;21.30;6.73;;;;;1.90;96514.00;;;;5026968;28;20472;-67
2023/12/03 01:24:23;;;;;;;11.53;4.07;;;;;1.90;96532.00;;;;5024258;28;20436;-66
2023/12/03 01:27:12;;;;;;;5.00;2.13;;;;;1.90;96532.00;;;;5019064;28;20833;-67
2023/12/03 01:30:01;;;;;;;10.50;3.87;;;;;1.90;96535.00;;;;5022926;28;20826;-67
2023/12/03 01:32:52;;;;;;;9.03;3.47;;;;;1.80;96535.00;;;;5024124;28;20426;-68
2023/12/03 01:35:41;;;;;;;10.20;3.83;;;;;1.90;96550.00;;;;5023652;28;20525;-66
2023/12/03 01:38:30;;;;;;;19.43;6.60;;;;;1.90;96552.00;;;;5013826;28;20475;-67
2023/12/03 01:41:19;;;;;;;18.67;6.37;;;;;1.60;96558.00;;;;5018551;28;20455;-66
2023/12/03 01:44:08;;;;;;;11.27;4.30;;;;;1.60;96563.00;;;;5024064;28;20954;-66
2023/12/03 01:47:00;;;;;;;8.73;3.47;;;;;1.70;96564.00;;;;5016871;28;20502;-66
2023/12/03 01:49:51;;;;;;;12.53;4.77;;;;;1.70;96551.00;;;;5021594;28;20431;-67
2023/12/03 01:52:40;;;;;;;8.63;3.80;;;;;1.60;96572.00;;;;5018517;28;20428;-66
2023/12/03 01:55:29;;;;;;;27.53;9.13;;;;;1.70;96575.00;;;;5014491;28;20425;-66
2023/12/03 01:58:19;;;;;;;17.30;6.47;;;;;1.70;96577.00;;;;5013708;28;20500;-66
2023/12/03 02:01:08;;;;;;;11.20;5.73;;;;;1.70;96582.00;;;;5017738;28;20447;-66
2023/12/03 02:03:57;;;;;;;8.63;4.70;;;;;1.70;96586.00;;;;5018342;28;20436;-67
2023/12/03 02:06:48;;;;;;;13.20;8.03;;;;;1.70;96578.00;;;;5018794;28;20418;-66
2023/12/03 02:09:37;;;;;;;41.50;34.33;;;;;1.50;96585.00;;;;5016677;28;20421;-66
2023/12/03 02:12:26;;;;;;;64.10;44.40;;;;;1.60;96582.00;;;;5022957;28;20432;-67
2023/12/03 02:15:15;;;;;;;83.80;48.07;;;;;1.60;96585.00;;;;5022044;28;20428;-68
2023/12/03 02:18:05;;;;;;;86.43;47.80;;;;;1.60;96586.00;;;;5016916;28;20476;-66
2023/12/03 02:20:54;;;;;;;105.50;52.43;;;;;1.40;96594.00;;;;5016030;28;20459;-66
2023/12/03 02:23:47;;;;;;;85.40;41.73;;;;;1.60;96599.00;;;;5025845;28;20424;-67
2023/12/03 02:26:36;;;;;;;119.63;53.27;;;;;1.50;96603.00;;;;5016832;28;20432;-66
2023/12/03 02:29:25;;;;;;;139.20;57.50;;;;;1.40;96601.00;;;;5019651;28;20492;-66
2023/12/03 02:32:14;;;;;;;12.30;4.83;;;;;1.40;96598.00;;;;5020747;28;20460;-66
2023/12/03 02:35:04;;;;;;;10.57;5.47;;;;;1.40;96614.00;;;;5017069;28;21153;-66
2023/12/03 02:37:53;;;;;;;12.87;6.37;;;;;1.20;96620.00;;;;5016154;28;20483;-67
2023/12/03 02:40:44;;;;;;;16.83;14.17;;;;;1.30;96625.00;;;;5027929;28;20968;-67
2023/12/03 02:43:34;;;;;;;90.23;49.40;;;;;1.30;96628.00;;;;5026173;28;20992;-67
2023/12/03 02:46:23;;;;;;;82.93;44.07;;;;;1.30;96644.00;;;;5024295;28;20428;-66
2023/12/03 02:49:12;;;;;;;11.87;4.23;;;;;1.10;96639.00;;;;5018456;28;20443;-67
2023/12/03 02:52:01;;;;;;;17.67;5.93;;;;;0.40;96640.00;;;;5027538;28;20444;-67
2023/12/03 02:54:50;;;;;;;8.83;3.10;;;;;0.60;96641.00;;;;5016248;28;20429;-67
2023/12/03 02:57:41;;;;;;;11.33;4.10;;;;;0.20;96638.00;;;;5015670;28;20456;-66
2023/12/03 03:00:30;;;;;;;23.83;7.50;;;;;0.30;96639.00;;;;5022682;28;20449;-65
2023/12/03 03:03:19;;;;;;;10.37;4.07;;;;;0.70;96650.00;;;;5021816;28;20674;-66
2023/12/03 03:06:09;;;;;;;12.97;11.50;;;;;0.90;96664.00;;;;5019347;28;20432;-66
2023/12/03 03:08:58;;;;;;;45.57;28.73;;;;;1.00;96672.00;;;;5027537;28;20431;-65
2023/12/03 03:11:47;;;;;;;8.63;3.00;;;;;0.70;96664.00;;;;5022754;28;20958;-66
2023/12/03 03:14:37;;;;;;;17.73;5.80;;;;;0.80;96668.00;;;;5020909;28;20428;-67
2023/12/03 03:17:26;;;;;;;20.43;6.23;;;;;0.90;96679.00;;;;5022843;28;20476;-67
2023/12/03 03:20:17;;;;;;;10.57;3.60;;;;;0.90;96687.00;;;;5015360;28;20441;-67
2023/12/03 03:23:06;;;;;;;102.53;49.67;;;;;0.80;96687.00;;;;5022162;28;20436;-66
2023/12/03 03:25:55;;;;;;;52.80;22.63;;;;;0.80;96685.00;;;;5025374;28;20428;-67
2023/12/03 03:28:44;;;;;;;7.37;2.63;;;;;0.70;96697.00;;;;5026831;28;20953;-66
2023/12/03 03:31:34;;;;;;;16.13;5.43;;;;;0.60;96699.00;;;;5026116;28;20452;-66
2023/12/03 03:34:23;;;;;;;10.53;3.60;;;;;0.70;96712.00;;;;5022025;28;20439;-67
2023/12/03 03:37:13;;;;;;;5.43;2.17;;;;;0.40;96701.00;;;;5025776;28;20432;-66
2023/12/03 03:40:02;;;;;;;7.97;2.83;;;;;0.50;96708.00;;;;5022718;28;20441;-67
2023/12/03 03:42:51;;;;;;;7.30;2.63;;;;;0.40;96715.00;;;;5027622;28;20791;-66
2023/12/03 03:45:40;;;;;;;7.63;2.80;;;;;0.00;96724.00;;;;5023861;28;20432;-67
2023/12/03 03:48:30;;;;;;;15.37;5.03;;;;;0.10;96728.00;;;;5028956;28;20447;-67
2023/12/03 03:51:20;;;;;;;8.57;3.07;;;;;0.20;96739.00;;;;5028273;28;20448;-66
2023/12/03 03:54:09;;;;;;;8.17;2.90;;;;;0.00;96742.00;;;;5021573;28;20440;-66
2023/12/03 03:56:58;;;;;;;10.63;3.57;;;;;-0.10;96755.00;;;;5023060;28;20432;-66
2023/12/03 03:59:47;;;;;;;72.97;31.47;;;;;0.10;96759.00;;;;5015379;28;20433;-67
2023/12/03 04:02:36;;;;;;;59.83;36.90;;;;;-0.10;96772.00;;;;5028361;28;20818;-66
2023/12/03 04:05:27;;;;;;;24.23;7.23;;;;;0.00;96769.00;;;;5022821;28;20436;-67
2023/12/03 04:08:16;;;;;;;5.37;2.00;;;;;0.10;96780.00;;;;5014848;28;20428;-66
2023/12/03 04:11:06;;;;;;;4.53;2.47;;;;;-0.20;96780.00;;;;5029989;28;21026;-66
2023/12/03 04:13:55;;;;;;;17.10;7.37;;;;;-0.10;96788.00;;;;5021966;28;20824;-65
2023/12/03 04:16:44;;;;;;;13.87;5.33;;;;;-0.30;96785.00;;;;5029531;28;20425;-67
2023/12/03 04:19:33;;;;;;;25.47;12.73;;;;;-0.50;96785.00;;;;5022040;28;20479;-67
2023/12/03 04:22:24;;;;;;;30.40;21.13;;;;;-0.60;96777.00;;;;5021103;28;20437;-67
2023/12/03 04:25:14;;;;;;;62.23;35.93;;;;;-0.50;96800.00;;;;5019981;28;20929;-67
2023/12/03 04:28:04;;;;;;;48.80;20.63;;;;;-0.30;96808.00;;;;5028496;28;20431;-66
2023/12/03 04:30:53;;;;;;;9.77;3.30;;;;;-0.60;96810.00;;;;5022885;28;20455;-67
2023/12/03 04:33:44;;;;;;;38.07;20.97;;;;;-0.50;96816.00;;;;5021440;28;20468;-66
2023/12/03 04:36:33;;;;;;;16.60;5.80;;;;;-0.50;96820.00;;;;5025465;28;20432;-66
2023/12/03 04:39:23;;;;;;;11.53;4.17;;;;;-0.70;96818.00;;;;5020699;28;20480;-66
2023/12/03 04:42:13;;;;;;;5.40;2.10;;;;;-0.90;96824.00;;;;5025874;28;20459;-66
2023/12/03 04:45:02;;;;;;;4.47;2.00;;;;;-0.60;96817.00;;;;5019577;28;20425;-67
2023/12/03 04:47:51;;;;;;;6.13;2.57;;;;;-0.50;96824.00;;;;5013616;28;20456;-67
2023/12/03 04:50:40;;;;;;;6.97;2.70;;;;;-0.80;96824.00;;;;5024242;28;20451;-68
2023/12/03 04:53:29;;;;;;;12.00;4.33;;;;;-0.70;96829.00;;;;5015975;28;20436;-67
2023/12/03 04:56:20;;;;;;;6.77;2.77;;;;;-0.70;96828.00;;;;5022014;28;20436;-67
2023/12/03 04:59:09;;;;;;;7.80;3.03;;;;;-0.70;96828.00;;;;5025207;28;20460;-66
2023/12/03 05:01:58;;;;;;;10.30;3.70;;;;;-0.90;96841.00;;;;5023956;28;20448;-66
2023/12/03 05:04:47;;;;;;;5.67;2.43;;;;;-1.00;96835.00;;;;5024925;28;20440;-66
2023/12/03 05:07:36;;;;;;;12.40;4.20;;;;;-1.40;96847.00;;;;5017364;28;20416;-68
2023/12/03 05:10:25;;;;;;;24.20;7.20;;;;;-1.40;96845.00;;;;5020217;28;20470;-67
2023/12/03 05:13:18;;;;;;;12.77;3.93;;;;;-1.70;96849.00;;;;5020259;28;20433;-66
2023/12/03 05:16:08;;;;;;;8.47;2.83;;;;;-1.50;96851.00;;;;5019681;28;20443;-68
2023/12/03 05:18:57;;;;;;;13.13;4.10;;;;;-1.40;96856.00;;;;5015442;28;20465;-66
2023/12/03 05:21:46;;;;;;;9.70;3.20;;;;;-1.40;96864.00;;;;5019286;28;20449;-66
2023/12/03 05:24:35;;;;;;;15.60;4.87;;;;;-1.30;96871.00;;;;5018389;28;20428;-66
2023/12/03 05:27:24;;;;;;;11.67;3.67;;;;;-1.40;96872.00;;;;5026493;28;20832;-66
2023/12/03 05:30:16;;;;;;;4.17;1.77;;;;;-1.70;96861.00;;;;5025515;28;20455;-66
2023/12/03 05:33:05;;;;;;;8.57;2.60;;;;;-1.90;96876.00;;;;5017890;28;20432;-67
2023/12/03 05:35:54;;;;;;;3.50;1.47;;;;;-2.00;96879.00;;;;5022213;28;20421;-67
2023/12/03 05:38:44;;;;;;;2.53;1.20;;;;;-1.90;96870.00;;;;5019498;28;20460;-68
2023/12/03 05:41:39;;;;;;;15.87;4.80;;;;;-1.60;96878.00;;;;5025978;28;20444;-66
2023/12/03 05:44:28;;;;;;;18.00;5.37;;;;;-1.50;96878.00;;;;5019075;28;20933;-66
2023/12/03 05:47:19;;;;;;;10.27;3.40;;;;;-1.30;96891.00;;;;5020229;28;20440;-67
2023/12/03 05:50:09;;;;;;;8.67;2.83;;;;;-1.20;96895.00;;;;5020458;28;20805;-68
2023/12/03 05:52:58;;;;;;;4.20;1.73;;;;;-1.30;96900.00;;;;5014813;28;20986;-68
2023/12/03 05:55:47;;;;;;;9.43;2.97;;;;;-1.30;96906.00;;;;5015964;28;20443;-67
2023/12/03 05:58:36;;;;;;;14.83;4.50;;;;;-1.70;96903.00;;;;5013773;28;20464;-67
2023/12/03 06:01:26;;;;;;;22.40;6.13;;;;;-2.10;96898.00;;;;5020538;28;20452;-67
2023/12/03 06:04:16;;;;;;;10.93;3.60;;;;;-2.70;96903.00;;;;5018732;28;21016;-66
2023/12/03 06:07:05;;;;;;;10.40;3.17;;;;;-3.10;96908.00;;;;5022235;28;20467;-66
2023/12/03 06:09:55;;;;;;;10.47;3.40;;;;;-2.80;96921.00;;;;5017544;28;20804;-66
2023/12/03 06:12:44;;;;;;;13.30;3.90;;;;;-2.10;96931.00;;;;5012331;28;20429;-66
2023/12/03 06:15:33;;;;;;;22.13;6.30;;;;;-2.10;96932.00;;;;5021467;28;20444;-66
2023/12/03 06:18:22;;;;;;;14.57;4.33;;;;;-2.00;96933.00;;;;5025921;28;20945;-67
2023/12/03 06:21:12;;;;;;;14.80;5.63;;;;;-2.00;96926.00;;;;5023571;28;21168;-66
2023/12/03 06:24:02;;;;;;;6.33;2.40;;;;;-2.00;96938.00;;;;5018774;28;20425;-67
2023/12/03 06:26:51;;;;;;;7.93;2.87;;;;;-1.80;96948.00;;;;5016747;28;20795;-67
2023/12/03 06:29:40;;;;;;;5.00;2.30;;;;;-1.90;96948.00;;;;5014717;28;20428;-67
2023/12/03 06:32:29;;;;;;;11.13;4.50;;;;;-1.80;96965.00;;;;5018605;28;20447;-66
2023/12/03 06:35:19;;;;;;;9.00;3.47;;;;;-2.20;96966.00;;;;5020530;28;20425;-66
2023/12/03 06:38:09;;;;;;;3.53;1.67;;;;;-2.60;96968.00;;;;5011409;28;20789;-68
2023/12/03 06:40:58;;;;;;;6.83;2.60;;;;;-2.20;96978.00;;;;5016638;28;20460;-67
2023/12/03 06:43:47;;;;;;;7.83;3.40;;;;;-2.20;96975.00;;;;5021318;28;20425;-67
2023/12/03 06:46:40;;;;;;;2.67;2.47;;;;;-2.10;96986.00;;;;5026221;28;20435;-66
2023/12/03 06:49:29;;;;;;;3.43;3.13;;;;;-1.80;96984.00;;;;5018259;28;20799;-67
2023/12/03 06:52:18;;;;;;;1.60;1.50;;;;;-2.10;96998.00;;;;5017853;28;20429;-67
2023/12/03 06:55:09;;;;;;;1.40;1.30;;;;;-2.80;96989.00;;;;5018202;28;20425;-67
2023/12/03 06:57:59;;;;;;;1.50;1.40;;;;;-2.90;96985.00;;;;5023767;28;20452;-67
2023/12/03 07:00:48;;;;;;;1.33;1.30;;;;;-2.60;96990.00;;;;5029094;28;20463;-67
2023/12/03 07:03:37;;;;;;;2.23;2.13;;;;;-2.40;97003.00;;;;5019988;28;20436;-67
2023/12/03 07:06:26;;;;;;;2.70;2.50;;;;;-2.80;97000.00;;;;5020375;28;21608;-67
2023/12/03 07:09:15;;;;;;;2.77;2.57;;;;;-2.40;97012.00;;;;5026608;28;20432;-67
2023/12/03 07:12:07;;;;;;;1.93;1.83;;;;;-2.10;97025.00;;;;5024268;28;20455;-66
2023/12/03 07:14:56;;;;;;;2.30;2.20;;;;;-1.70;97017.00;;;;5020837;28;20455;-66
2023/12/03 07:17:45;;;;;;;1.53;1.43;;;;;-2.10;97026.00;;;;5025921;28;20433;-65
2023/12/03 07:20:34;;;;;;;2.10;2.00;;;;;-2.10;97028.00;;;;5027506;28;20824;-66
2023/12/03 07:23:23;;;;;;;1.40;1.40;;;;;-2.30;97021.00;;;;5028281;28;20443;-66
2023/12/03 07:26:12;;;;;;;1.60;1.50;;;;;-2.30;97021.00;;;;5027198;28;20440;-67
2023/12/03 07:29:03;;;;;;;1.87;1.77;;;;;-2.10;97036.00;;;;5026687;28;20432;-66
2023/12/03 07:31:52;;;;;;;1.73;1.63;;;;;-2.20;97030.00;;;;5022186;28;21277;-67
2023/12/03 07:34:41;;;;;;;1.30;1.30;;;;;-2.40;97035.00;;;;5023043;28;20849;-67
2023/12/03 07:37:30;;;;;;;2.33;2.23;;;;;-2.40;97039.00;;;;5027852;28;20436;-66
2023/12/03 07:40:19;;;;;;;1.67;1.60;;;;;-2.60;97034.00;;;;5023668;28;20495;-67
2023/12/03 07:43:09;;;;;;;1.27;1.23;;;;;-2.60;97039.00;;;;5025320;28;20427;-67
2023/12/03 07:45:59;;;;;;;0.83;0.83;;;;;-2.70;97052.00;;;;5026708;28;20436;-68
2023/12/03 07:48:48;;;;;;;1.13;1.13;;;;;-2.40;97043.00;;;;5022097;28;20960;-66
2023/12/03 07:51:37;;;;;;;2.23;2.13;;;;;-2.00;97053.00;;;;5021908;28;20478;-67
2023/12/03 07:54:27;;;;;;;3.67;3.47;;;;;-2.10;97056.00;;;;5022365;28;20444;-66
2023/12/03 07:57:16;;;;;;;1.67;1.57;;;;;-1.70;97060.00;;;;5026342;28;20425;-66
2023/12/03 08:00:06;;;;;;;1.87;1.77;;;;;-1.90;97063.00;;;;5019751;28;21306;-66
2023/12/03 08:02:56;;;;;;;1.40;1.37;;;;;-2.40;97072.00;;;;5021691;28;20446;-67
2023/12/03 08:05:46;;;;;;;1.20;1.20;;;;;-2.30;97084.00;;;;5021752;28;20447;-67
2023/12/03 08:08:35;;;;;;;2.17;2.07;;;;;-2.10;97089.00;;;;5022871;28;20444;-66
2023/12/03 08:11:24;;;;;;;1.43;1.40;;;;;-2.30;97093.00;;;;5026090;28;20467;-66
2023/12/03 08:14:13;;;;;;;1.70;1.60;;;;;-2.30;97083.00;;;;5022111;28;20448;-67
2023/12/03 08:17:02;;;;;;;1.17;1.17;;;;;-2.40;97081.00;;;;5012579;28;20437;-67
2023/12/03 08:19:53;;;;;;;1.40;1.33;;;;;-2.00;97100.00;;;;5024559;28;20460;-66
2023/12/03 08:22:42;;;;;;;1.23;1.20;;;;;-2.00;97101.00;;;;5016314;28;20436;-68
2023/12/03 08:25:31;;;;;;;2.50;2.40;;;;;-2.20;97102.00;;;;5021050;28;20447;-67
2023/12/03 08:28:20;;;;;;;1.30;1.30;;;;;-1.80;97111.00;;;;5021847;28;20435;-66
2023/12/03 08:31:10;;;;;;;1.43;1.37;;;;;-1.90;97107.00;;;;5019780;28;20440;-66
2023/12/03 08:33:59;;;;;;;1.33;1.33;;;;;-1.20;97122.00;;;;5021977;28;20456;-67
2023/12/03 08:36:51;;;;;;;1.20;1.20;;;;;-1.40;97117.00;;;;5020305;28;20999;-66
2023/12/03 08:39:40;;;;;;;1.93;1.83;;;;;-1.70;97120.00;;;;5020235;28;20436;-66
2023/12/03 08:42:29;;;;;;;2.63;2.43;;;;;-1.40;97127.00;;;;5026273;28;20961;-69
2023/12/03 08:45:18;;;;;;;1.43;1.37;;;;;-1.20;97126.00;;;;5023546;28;20444;-67
2023/12/03 08:48:07;;;;;;;1.50;1.40;;;;;-1.10;97132.00;;;;5023311;28;20435;-68
2023/12/03 08:50:56;;;;;;;1.50;1.40;;;;;-0.80;97136.00;;;;5025466;28;20452;-66
2023/12/03 08:53:47;;;;;;;1.73;1.63;;;;;-1.00;97126.00;;;;5014568;28;20432;-68
2023/12/03 08:56:36;;;;;;;2.53;2.33;;;;;-0.60;97128.00;;;;5022927;28;20431;-67
2023/12/03 08:59:25;;;;;;;2.37;2.23;;;;;-0.60;97130.00;;;;5018300;28;20432;-68
2023/12/03 09:02:14;;;;;;;1.80;1.70;;;;;-0.30;97132.00;;;;5022392;28;20432;-67
2023/12/03 09:05:03;;;;;;;1.50;1.40;;;;;-0.10;97148.00;;;;5024242;28;20508;-66
2023/12/03 09:07:52;;;;;;;1.53;1.43;;;;;-0.10;97140.00;;;;5024270;28;21526;-67
2023/12/03 09:10:43;;;;;;;2.60;2.40;;;;;-0.50;97142.00;;;;5018350;28;20498;-67
2023/12/03 09:13:32;;;;;;;2.10;2.00;;;;;0.00;97137.00;;;;5020562;28;20841;-67
2023/12/03 09:16:21;;;;;;;1.80;1.70;;;;;-0.10;97153.00;;;;5018305;28;20824;-67
2023/12/03 09:19:10;;;;;;;1.90;1.80;;;;;0.00;97158.00;;;;5021957;28;20436;-67
2023/12/03 09:21:59;;;;;;;3.07;2.77;;;;;0.10;97155.00;;;;5020476;28;20853;-66
2023/12/03 09:24:48;;;;;;;1.80;1.70;;;;;0.50;97155.00;;;;5022540;28;20432;-67
2023/12/03 09:27:39;;;;;;;2.63;2.43;;;;;0.40;97157.00;;;;5026251;28;20424;-67
2023/12/03 09:30:28;;;;;;;3.50;3.20;;;;;0.00;97166.00;;;;5025301;28;20973;-69
2023/12/03 09:33:17;;;;;;;1.83;1.73;;;;;0.10;97149.00;;;;5025563;28;20435;-67
2023/12/03 09:36:07;;;;;;;2.07;1.87;;;;;-0.40;97149.00;;;;5022182;28;20459;-67
2023/12/03 09:38:56;;;;;;;2.10;1.90;;;;;-0.20;97157.00;;;;5016907;28;20437;-67
2023/12/03 09:41:49;;;;;;;1.90;1.80;;;;;-0.20;97160.00;;;;5024847;28;20477;-67
2023/12/03 09:44:49;;;;;;;2.63;2.43;;;;;-0.40;97165.00;;;;5024559;28;20436;-68
2023/12/03 09:47:39;;;;;;;2.73;2.53;;;;;0.70;97151.00;;;;5024710;28;20440;-67
2023/12/03 09:50:28;;;;;;;3.17;2.87;;;;;0.40;97159.00;;;;5023640;28;20866;-68
2023/12/03 09:53:20;;;;;;;2.30;2.10;;;;;0.80;97157.00;;;;5019486;28;20448;-67
2023/12/03 09:56:10;;;;;;;1.40;1.27;;;;;0.70;97156.00;;;;5021322;28;20991;-67
2023/12/03 09:58:59;;;;;;;1.50;1.40;;;;;1.10;97157.00;;;;5016034;28;20436;-67
2023/12/03 10:01:50;;;;;;;2.00;1.80;;;;;1.10;97155.00;;;;5014673;28;20476;-70
2023/12/03 10:04:39;;;;;;;3.90;3.50;;;;;0.90;97145.00;;;;5015551;28;20429;-67
2023/12/03 10:07:29;;;;;;;3.73;2.97;;;;;1.60;97156.00;;;;5018032;28;20834;-67
2023/12/03 10:10:20;;;;;;;2.20;1.93;;;;;2.40;97156.00;;;;5017788;28;20471;-67
2023/12/03 10:13:13;;;;;;;2.70;2.07;;;;;2.40;97158.00;;;;5022645;28;20429;-67
2023/12/03 10:16:03;;;;;;;1.17;1.07;;;;;3.40;97163.00;;;;5022607;28;20979;-66
2023/12/03 10:18:56;;;;;;;3.87;2.47;;;;;4.80;97175.00;;;;5016942;28;20814;-67
2023/12/03 10:21:50;;;;;;;4.30;2.60;;;;;5.40;97175.00;;;;5016553;28;20543;-67
2023/12/03 10:24:48;;;;;;;6.03;3.83;;;;;5.60;97179.00;;;;5022504;28;20961;-67
2023/12/03 10:27:37;;;;;;;5.47;3.43;;;;;6.40;97181.00;;;;5013954;28;20443;-67
2023/12/03 10:30:26;;;;;;;6.13;3.33;;;;;5.90;97171.00;;;;5014181;28;20797;-67
2023/12/03 10:33:17;;;;;;;3.63;2.13;;;;;4.30;97164.00;;;;5018252;28;20198;-67
2023/12/03 10:36:09;;;;;;;3.73;2.20;;;;;5.10;97158.00;;;;5017160;28;20224;-67
2023/12/03 10:38:58;;;;;;;5.77;3.10;;;;;5.10;97165.00;;;;5020092;28;20201;-68
2023/12/03 10:41:49;;;;;;;6.67;3.77;;;;;4.60;97162.00;;;;5020015;28;20729;-67
2023/12/03 10:44:39;;;;;;;6.87;3.93;;;;;4.10;97147.00;;;;5018186;28;20201;-67
2023/12/03 10:47:30;;;;;;;5.60;3.17;;;;;3.40;97149.00;;;;5019598;28;20697;-67
2023/12/03 10:50:19;;;;;;;3.37;2.13;;;;;3.80;97156.00;;;;5021020;28;20234;-68
2023/12/03 10:53:10;;;;;;;3.07;1.90;;;;;4.50;97167.00;;;;5021750;28;20678;-67
2023/12/03 10:56:01;;;;;;;4.03;2.43;;;;;5.40;97168.00;;;;5019520;28;20201;-67
2023/12/03 10:58:51;;;;;;;1.93;1.13;;;;;4.80;97154.00;;;;5023466;28;20223;-67
2023/12/03 11:01:42;;;;;;;7.70;4.30;;;;;4.60;97150.00;;;;5022861;28;20605;-67
2023/12/03 11:04:36;;;;;;;11.23;5.57;;;;;5.60;97170.00;;;;5017313;28;20197;-68
2023/12/03 11:07:25;;;;;;;4.30;2.30;;;;;4.80;97166.00;;;;5024049;28;20209;-70
2023/12/03 11:10:16;;;;;;;5.90;2.93;;;;;2.80;97140.00;;;;5021868;28;20217;-71
2023/12/03 11:13:05;;;;;;;4.40;2.27;;;;;3.80;97164.00;;;;5017855;28;20224;-67
2023/12/03 11:15:55;;;;;;;1.93;1.23;;;;;3.90;97166.00;;;;5017476;28;20201;-69
2023/12/03 11:18:50;;;;;;;7.97;4.13;;;;;3.90;97154.00;;;;5011782;28;20201;-67
2023/12/03 11:21:45;;;;;;;11.37;5.27;;;;;4.60;97175.00;;;;5019115;28;20225;-68
2023/12/03 11:24:51;;;;;;;11.53;5.10;;;;;3.50;97158.00;;;;5025152;28;20682;-68
2023/12/03 11:27:44;;;;;;;8.47;4.03;;;;;4.10;97147.00;;;;5020958;28;20678;-67
2023/12/03 11:30:37;;;;;;;15.23;6.33;;;;;5.40;97157.00;;;;5023688;28;20217;-67
2023/12/03 11:33:29;;;;;;;3.40;1.63;;;;;4.90;97147.00;;;;5023514;28;20198;-69
2023/12/03 11:36:18;;;;;;;7.53;3.10;;;;;4.80;97139.00;;;;5022726;28;20566;-68
2023/12/03 11:39:08;;;;;;;10.97;4.80;;;;;5.00;97129.00;;;;5015354;28;20194;-68
2023/12/03 11:42:00;;;;;;;38.50;19.30;;;;;5.70;97133.00;;;;5028324;28;20230;-67
2023/12/03 11:44:51;;;;;;;3.53;1.90;;;;;5.00;97118.00;;;;5017643;28;20202;-68
2023/12/03 11:47:40;;;;;;;7.47;4.03;;;;;3.90;97122.00;;;;5020758;28;20592;-69
2023/12/03 11:50:31;;;;;;;7.03;4.23;;;;;4.40;97128.00;;;;5025173;28;20225;-68
2023/12/03 11:53:27;;;;;;;4.27;2.73;;;;;4.90;97130.00;;;;5016702;28;20213;-68
2023/12/03 11:56:20;;;;;;;3.67;2.37;;;;;5.10;97129.00;;;;5016442;28;20221;-68
2023/12/03 11:59:13;;;;;;;3.43;2.07;;;;;5.10;97143.00;;;;5028503;28;20218;-68
2023/12/03 12:02:03;;;;;;;8.80;3.87;;;;;4.20;97145.00;;;;5016724;28;20237;-67
2023/12/03 12:04:52;;;;;;;1.40;1.30;;;;;5.70;97143.00;;;;5019825;28;20206;-68
2023/12/03 12:07:41;;;;;;;2.83;2.53;;;;;7.90;97153.00;;;;5018376;28;20205;-68
2023/12/03 12:10:31;;;;;;;4.40;3.70;;;;;5.70;97138.00;;;;5024136;28;20225;-69
2023/12/03 12:13:20;;;;;;;1.40;1.30;;;;;5.70;97141.00;;;;5028984;28;20696;-67
2023/12/03 12:16:10;;;;;;;1.37;1.27;;;;;6.30;97133.00;;;;5021204;28;20205;-67
2023/12/03 12:19:05;;;;;;;2.47;2.27;;;;;6.80;97140.00;;;;5019044;28;20200;-68
2023/12/03 12:21:54;;;;;;;1.70;1.53;;;;;6.40;97133.00;;;;5024863;28;20233;-68
2023/12/03 12:24:45;;;;;;;2.17;1.97;;;;;5.40;97128.00;;;;5021949;28;20213;-67
2023/12/03 12:27:34;;;;;;;3.87;3.40;;;;;5.40;97138.00;;;;5018311;28;20213;-68
2023/12/03 12:30:26;;;;;;;2.40;2.20;;;;;5.20;97131.00;;;;5022597;28;20221;-67
2023/12/03 12:33:18;;;;;;;1.60;1.50;;;;;5.70;97132.00;;;;5018016;28;20614;-67
2023/12/03 12:36:12;;;;;;;1.23;1.13;;;;;6.20;97134.00;;;;5021007;28;20276;-67
2023/12/03 12:39:01;;;;;;;2.57;2.33;;;;;5.80;97126.00;;;;5019803;28;20674;-68
2023/12/03 12:41:50;;;;;;;1.80;1.40;;;;;6.80;97142.00;;;;5021914;28;20608;-67
2023/12/03 12:44:41;;;;;;;3.00;2.70;;;;;6.90;97146.00;;;;5023237;28;20204;-67
2023/12/03 12:47:37;;;;;;;2.47;1.87;;;;;6.30;97136.00;;;;5020935;28;20208;-66
2023/12/03 12:50:36;;;;;;;3.40;2.53;;;;;6.50;97142.00;;;;5019569;28;20234;-66
2023/12/03 12:53:27;;;;;;;1.50;1.40;;;;;7.40;97159.00;;;;5017346;28;20205;-67
2023/12/03 12:56:16;;;;;;;2.27;1.67;;;;;7.40;97169.00;;;;5014342;28;20206;-68
2023/12/03 12:59:05;;;;;;;3.67;2.53;;;;;7.30;97153.00;;;;5018607;28;20204;-68
2023/12/03 13:01:56;;;;;;;3.33;2.13;;;;;6.80;97153.00;;;;5018679;28;20730;-68
2023/12/03 13:04:45;;;;;;;3.10;2.13;;;;;7.40;97147.00;;;;5019456;28;20193;-66
2023/12/03 13:07:34;;;;;;;5.27;3.17;;;;;7.70;97150.00;;;;5024763;28;20209;-68
2023/12/03 13:10:25;;;;;;;4.50;2.73;;;;;7.20;97150.00;;;;5023611;28;20237;-67
2023/12/03 13:13:14;;;;;;;4.00;2.47;;;;;7.30;97158.00;;;;5019888;28;20575;-67
2023/12/03 13:16:03;;;;;;;3.07;1.80;;;;;8.90;97171.00;;;;5022402;28;20205;-68
2023/12/03 13:18:53;;;;;;;4.10;2.43;;;;;6.70;97153.00;;;;5023387;28;20304;-67
2023/12/03 13:21:42;;;;;;;7.80;4.70;;;;;6.30;97152.00;;;;5013583;28;20225;-67
2023/12/03 13:24:31;;;;;;;4.93;3.10;;;;;6.90;97152.00;;;;5017796;28;20200;-67
2023/12/03 13:27:22;;;;;;;3.80;2.43;;;;;6.40;97152.00;;;;5019983;28;20204;-67
2023/12/03 13:30:11;;;;;;;2.97;1.90;;;;;5.70;97153.00;;;;5022539;28;20233;-67
2023/12/03 13:33:01;;;;;;;2.43;1.60;;;;;5.70;97158.00;;;;5025988;28;20608;-66
2023/12/03 13:35:51;;;;;;;1.73;1.20;;;;;4.80;97144.00;;;;5023684;28;20756;-67
2023/12/03 13:38:40;;;;;;;4.90;3.50;;;;;5.60;97157.00;;;;5021789;28;20228;-67
2023/12/03 13:41:31;;;;;;;2.30;1.63;;;;;5.80;97162.00;;;;5025613;28;20707;-66
2023/12/03 13:44:21;;;;;;;1.37;1.07;;;;;5.70;97166.00;;;;5022745;28;20229;-67
2023/12/03 13:47:10;;;;;;;1.77;1.57;;;;;4.00;97154.00;;;;5018441;28;20201;-66
2023/12/03 13:50:01;;;;;;;1.60;1.40;;;;;4.60;97166.00;;;;5023519;28;20198;-66
2023/12/03 13:52:51;;;;;;;1.30;1.17;;;;;4.20;97164.00;;;;5012131;28;20629;-67
2023/12/03 13:55:41;;;;;;;3.63;3.00;;;;;4.60;97169.00;;;;5017619;28;20197;-67
2023/12/03 13:58:30;;;;;;;2.20;1.50;;;;;5.50;97187.00;;;;5019922;28;20258;-67
2023/12/03 14:01:20;;;;;;;2.87;2.10;;;;;5.50;97190.00;;;;5015089;28;20233;-66
2023/12/03 14:04:09;;;;;;;2.83;2.20;;;;;3.70;97173.00;;;;5019479;28;20225;-67
2023/12/03 14:06:59;;;;;;;1.73;1.43;;;;;2.90;97179.00;;;;5024644;28;20207;-67
2023/12/03 14:09:48;;;;;;;1.93;1.60;;;;;3.30;97193.00;;;;5021132;28;20212;-67
2023/12/03 14:12:37;;;;;;;3.30;2.97;;;;;3.30;97184.00;;;;5014610;28;20436;-67